Time;durP1;ratioP1;P1;durP2;ratioP2;P2;SDS_P1;SDS_P2;PMS_P1;PMS_P2;Temp;Humidity;BMP_temperature;BMP_pressure;BME280_temperature;BME280_humidity;BME280_pressure;Samples;Min_cycle;Max_cycle;Signal;HPM_P1;HPM_P2
2023/10/22 00:00:21;;;;;;;1.58;0.55;;;14.30;99.90;;;;;;5009670;28;20053;-82
2023/10/22 00:02:48;;;;;;;1.95;0.57;;;14.30;99.90;;;;;;5018328;28;20074;-80
2023/10/22 00:05:15;;;;;;;3.70;0.60;;;14.30;99.90;;;;;;5014018;28;20045;-82
2023/10/22 00:07:41;;;;;;;1.98;0.80;;;14.20;99.90;;;;;;5019925;28;20080;-82
2023/10/22 00:10:08;;;;;;;1.63;0.70;;;14.20;99.90;;;;;;5008882;28;20096;-80
2023/10/22 00:12:35;;;;;;;0.90;0.60;;;14.20;99.90;;;;;;5008132;28;20046;-83
2023/10/22 00:15:02;;;;;;;0.65;0.50;;;14.10;99.90;;;;;;5015503;28;20042;-83
2023/10/22 00:17:29;;;;;;;2.50;0.60;;;14.00;99.90;;;;;;5010337;28;20057;-82
2023/10/22 00:19:56;;;;;;;1.52;0.50;;;14.00;99.90;;;;;;5018508;28;20081;-80
2023/10/22 00:22:22;;;;;;;1.60;0.60;;;13.90;99.90;;;;;;5017682;28;20070;-83
2023/10/22 00:24:49;;;;;;;2.50;0.55;;;13.90;99.90;;;;;;5013025;28;20046;-82
2023/10/22 00:27:16;;;;;;;2.90;0.60;;;13.80;99.90;;;;;;5008155;28;20461;-82
2023/10/22 00:29:43;;;;;;;3.13;0.70;;;13.70;99.90;;;;;;5012715;28;20149;-81
2023/10/22 00:32:10;;;;;;;4.05;0.60;;;13.70;99.90;;;;;;5020381;28;20049;-81
2023/10/22 00:34:37;;;;;;;3.47;0.70;;;13.70;99.90;;;;;;5011459;28;20077;-83
2023/10/22 00:37:05;;;;;;;1.00;0.50;;;13.70;99.90;;;;;;5019738;28;20038;-82
2023/10/22 00:39:31;;;;;;;2.03;0.70;;;13.80;99.90;;;;;;5015614;28;20050;-81
2023/10/22 00:41:58;;;;;;;1.75;0.60;;;13.80;99.90;;;;;;5019632;28;20050;-82
2023/10/22 00:44:25;;;;;;;2.45;0.68;;;13.80;99.90;;;;;;5012599;28;20066;-81
2023/10/22 00:46:52;;;;;;;2.63;0.70;;;13.80;99.90;;;;;;5015296;28;20050;-83
2023/10/22 00:49:19;;;;;;;1.13;0.60;;;13.80;99.90;;;;;;5011206;28;20050;-81
2023/10/22 00:51:48;;;;;;;3.55;1.05;;;13.80;99.90;;;;;;5015230;28;20046;-82
2023/10/22 00:54:16;;;;;;;4.95;0.70;;;13.80;99.90;;;;;;5007929;28;20041;-81
2023/10/22 00:56:43;;;;;;;4.20;0.80;;;13.80;99.90;;;;;;5006597;28;20057;-82
2023/10/22 00:59:11;;;;;;;3.08;0.95;;;13.80;99.90;;;;;;5015987;28;20070;-83
2023/10/22 01:01:38;;;;;;;3.63;0.70;;;13.80;99.90;;;;;;5016667;28;20057;-81
2023/10/22 01:04:06;;;;;;;2.25;0.80;;;13.70;99.90;;;;;;5009191;28;20052;-82
2023/10/22 01:06:35;;;;;;;2.00;0.70;;;13.70;99.90;;;;;;5011989;28;20132;-83
2023/10/22 01:09:03;;;;;;;6.00;0.75;;;13.70;99.90;;;;;;5011519;28;20046;-80
2023/10/22 01:11:30;;;;;;;1.20;0.60;;;13.70;99.90;;;;;;5020668;28;20042;-81
2023/10/22 01:13:56;;;;;;;1.50;0.82;;;13.60;99.90;;;;;;5018117;28;20046;-83
2023/10/22 01:16:24;;;;;;;1.40;0.60;;;13.60;99.90;;;;;;5023691;28;20077;-81
2023/10/22 01:18:51;;;;;;;1.52;0.60;;;13.60;99.90;;;;;;5015087;28;20060;-83
2023/10/22 01:21:17;;;;;;;1.65;0.50;;;13.60;99.90;;;;;;5010041;28;20118;-82
2023/10/22 01:23:44;;;;;;;1.83;0.65;;;13.60;99.90;;;;;;5013930;28;20047;-82
2023/10/22 01:26:11;;;;;;;2.47;0.77;;;13.60;99.90;;;;;;5009540;28;20138;-82
2023/10/22 01:28:38;;;;;;;2.58;0.68;;;13.50;99.90;;;;;;5013127;28;20546;-83
2023/10/22 01:31:05;;;;;;;1.63;0.70;;;13.50;99.90;;;;;;5020792;28;20049;-82
2023/10/22 01:33:32;;;;;;;1.92;0.52;;;13.50;99.90;;;;;;5015472;28;20058;-82
2023/10/22 01:35:59;;;;;;;3.63;0.70;;;13.40;99.90;;;;;;5013174;28;20058;-82
2023/10/22 01:38:26;;;;;;;2.80;0.70;;;13.40;99.90;;;;;;5014514;28;20073;-83
2023/10/22 01:40:53;;;;;;;4.28;0.60;;;13.40;99.90;;;;;;5018171;28;20046;-81
2023/10/22 01:43:20;;;;;;;2.70;0.55;;;13.40;99.90;;;;;;5014733;28;20100;-79
2023/10/22 01:45:46;;;;;;;2.67;0.75;;;13.40;99.90;;;;;;5018413;28;20112;-82
2023/10/22 01:48:13;;;;;;;3.35;0.70;;;13.40;99.90;;;;;;5013234;28;20104;-83
2023/10/22 01:50:40;;;;;;;3.35;0.50;;;13.40;99.90;;;;;;5010909;28;20461;-83
2023/10/22 01:53:07;;;;;;;7.20;0.77;;;13.40;99.90;;;;;;5027647;28;20058;-83
2023/10/22 01:55:34;;;;;;;4.60;0.73;;;13.40;99.90;;;;;;5024723;28;20053;-82
2023/10/22 01:58:01;;;;;;;1.83;0.50;;;13.40;99.90;;;;;;5018878;28;20175;-81
2023/10/22 02:00:27;;;;;;;5.63;1.13;;;13.40;99.90;;;;;;5010272;28;20052;-82
2023/10/22 02:02:54;;;;;;;4.78;0.65;;;13.40;99.90;;;;;;5010228;28;20054;-81
2023/10/22 02:05:21;;;;;;;1.55;0.63;;;13.50;99.90;;;;;;5005703;28;20046;-82
2023/10/22 02:07:48;;;;;;;3.03;0.70;;;13.50;99.90;;;;;;5014036;28;20085;-81
2023/10/22 02:10:14;;;;;;;2.15;0.55;;;13.50;99.90;;;;;;5023392;28;20057;-82
2023/10/22 02:12:41;;;;;;;2.10;0.65;;;13.50;99.90;;;;;;5016577;28;20262;-82
2023/10/22 02:15:08;;;;;;;6.30;0.68;;;13.50;99.90;;;;;;5021209;28;20045;-83
2023/10/22 02:17:37;;;;;;;3.78;0.52;;;13.50;99.90;;;;;;5012936;28;20105;-82
2023/10/22 02:20:08;;;;;;;1.98;0.60;;;13.50;99.90;;;;;;5008507;28;20534;-83
2023/10/22 02:22:37;;;;;;;3.42;1.55;;;13.50;99.90;;;;;;5012762;28;20182;-81
2023/10/22 02:25:05;;;;;;;3.97;0.90;;;13.50;99.90;;;;;;5007780;28;20142;-83
2023/10/22 02:27:32;;;;;;;3.88;0.90;;;13.50;99.90;;;;;;5016754;28;20054;-82
2023/10/22 02:29:59;;;;;;;0.75;0.40;;;13.50;99.90;;;;;;5012292;28;20465;-82
2023/10/22 02:32:26;;;;;;;3.30;0.95;;;13.50;99.90;;;;;;5015609;28;20064;-82
2023/10/22 02:34:53;;;;;;;0.90;0.40;;;13.50;99.90;;;;;;5005347;28;20065;-81
2023/10/22 02:37:20;;;;;;;1.98;0.73;;;13.40;99.90;;;;;;5011770;28;20046;-82
2023/10/22 02:39:47;;;;;;;1.55;0.77;;;13.40;99.90;;;;;;5006041;28;20081;-82
2023/10/22 02:42:14;;;;;;;3.67;0.80;;;13.40;99.90;;;;;;5017230;28;20431;-82
2023/10/22 02:44:40;;;;;;;3.20;0.60;;;13.30;99.90;;;;;;5011678;28;20050;-81
2023/10/22 02:47:08;;;;;;;1.63;0.75;;;13.20;99.90;;;;;;5011412;28;20060;-81
2023/10/22 02:49:35;;;;;;;1.80;0.50;;;13.20;99.90;;;;;;5013662;28;20058;-82
2023/10/22 02:52:02;;;;;;;2.30;0.93;;;13.10;99.90;;;;;;5011485;28;20054;-82
2023/10/22 02:54:29;;;;;;;3.65;0.70;;;13.10;99.90;;;;;;5015130;28;20104;-84
2023/10/22 02:56:56;;;;;;;4.18;0.77;;;13.00;99.90;;;;;;5016084;28;20046;-82
2023/10/22 02:59:23;;;;;;;4.00;0.77;;;12.90;99.90;;;;;;5010567;28;20042;-81
2023/10/22 03:01:49;;;;;;;5.82;1.00;;;12.90;99.90;;;;;;5009668;28;20043;-83
2023/10/22 03:04:16;;;;;;;3.58;1.02;;;12.90;99.90;;;;;;5005944;28;20541;-83
2023/10/22 03:06:43;;;;;;;2.60;0.60;;;12.80;99.90;;;;;;5013816;28;20359;-82
2023/10/22 03:09:10;;;;;;;2.22;0.65;;;12.80;99.90;;;;;;5013616;28;20053;-83
2023/10/22 03:11:36;;;;;;;3.28;0.50;;;12.70;99.90;;;;;;5020231;28;20056;-83
2023/10/22 03:14:05;;;;;;;1.70;0.63;;;12.70;99.90;;;;;;5021065;28;20482;-82
2023/10/22 03:16:31;;;;;;;2.28;0.80;;;12.60;99.90;;;;;;5012094;28;20049;-83
2023/10/22 03:18:58;;;;;;;1.15;1.05;;;12.60;99.90;;;;;;5007032;28;20050;-83
2023/10/22 03:21:28;;;;;;;2.28;0.80;;;12.60;99.90;;;;;;5011755;28;20045;-81
2023/10/22 03:23:55;;;;;;;2.40;0.97;;;12.60;99.90;;;;;;5018535;28;20177;-82
2023/10/22 03:26:21;;;;;;;2.45;0.50;;;12.50;99.90;;;;;;5014104;28;20058;-83
2023/10/22 03:28:50;;;;;;;4.28;0.80;;;12.50;99.90;;;;;;5008302;28;20065;-81
2023/10/22 03:31:18;;;;;;;3.17;0.70;;;12.50;99.90;;;;;;5014013;28;20053;-81
2023/10/22 03:33:45;;;;;;;2.05;0.63;;;12.50;99.90;;;;;;5007162;28;20518;-82
2023/10/22 03:36:14;;;;;;;2.08;0.70;;;12.50;99.90;;;;;;5011505;28;20046;-82
2023/10/22 03:38:41;;;;;;;5.05;0.73;;;12.50;99.90;;;;;;5018905;28;20054;-82
2023/10/22 03:41:08;;;;;;;3.67;1.00;;;12.50;99.90;;;;;;5021687;28;20046;-81
2023/10/22 03:43:35;;;;;;;5.78;1.00;;;12.40;99.90;;;;;;5011918;28;20050;-82
2023/10/22 03:46:02;;;;;;;2.92;0.80;;;12.40;99.90;;;;;;5014911;28;20054;-82
2023/10/22 03:48:29;;;;;;;2.88;0.82;;;12.40;99.90;;;;;;5010559;28;20054;-81
2023/10/22 03:50:57;;;;;;;6.00;1.42;;;12.30;99.90;;;;;;5021000;28;20084;-82
2023/10/22 03:53:24;;;;;;;5.18;1.20;;;12.30;99.90;;;;;;5016325;28;20109;-82
2023/10/22 03:55:51;;;;;;;7.05;1.13;;;12.30;99.90;;;;;;5016593;28;20118;-82
2023/10/22 03:58:18;;;;;;;4.00;0.70;;;12.30;99.90;;;;;;5014985;28;20125;-82
2023/10/22 04:00:45;;;;;;;2.63;0.90;;;12.30;99.90;;;;;;5016844;28;20098;-82
2023/10/22 04:03:12;;;;;;;3.05;0.80;;;12.20;99.90;;;;;;5020419;28;20054;-81
2023/10/22 04:05:39;;;;;;;3.33;0.90;;;12.20;99.90;;;;;;5024302;28;20058;-83
2023/10/22 04:08:07;;;;;;;1.65;0.50;;;12.20;99.90;;;;;;5019290;28;20057;-83
2023/10/22 04:10:35;;;;;;;5.47;1.17;;;12.20;99.90;;;;;;5021802;28;20050;-82
2023/10/22 04:13:02;;;;;;;3.58;0.65;;;12.10;99.90;;;;;;5022143;28;20062;-82
2023/10/22 04:15:36;;;;;;;3.85;0.93;;;12.10;99.90;;;;;;5017479;28;20472;-82
2023/10/22 04:18:03;;;;;;;3.58;0.85;;;12.10;99.90;;;;;;5012533;28;20038;-81
2023/10/22 04:20:34;;;;;;;2.30;0.47;;;12.10;99.90;;;;;;5011145;28;20115;-82
2023/10/22 04:23:00;;;;;;;;;;;12.10;99.90;;;;;;5018826;28;20129;-82
2023/10/22 04:25:28;;;;;;;2.25;0.90;;;12.10;99.90;;;;;;5018599;28;19922;-83
2023/10/22 04:27:55;;;;;;;8.00;0.80;;;12.10;99.90;;;;;;5009436;28;20101;-82
2023/10/22 04:30:21;;;;;;;4.47;1.00;;;12.10;99.90;;;;;;5022562;28;20042;-80
2023/10/22 04:32:49;;;;;;;5.00;0.98;;;12.10;99.90;;;;;;5012625;28;20039;-82
2023/10/22 04:35:18;;;;;;;3.92;0.70;;;12.00;99.90;;;;;;5024952;28;20054;-82
2023/10/22 04:37:45;;;;;;;2.25;1.00;;;12.00;99.90;;;;;;5019906;28;20110;-82
2023/10/22 04:40:12;;;;;;;4.60;1.15;;;12.00;99.90;;;;;;5016408;28;20050;-82
2023/10/22 04:42:38;;;;;;;2.15;0.70;;;12.00;99.90;;;;;;5008794;28;20440;-81
2023/10/22 04:45:06;;;;;;;3.58;0.80;;;12.00;99.90;;;;;;5011763;28;20052;-81
2023/10/22 04:47:32;;;;;;;6.97;0.85;;;12.00;99.90;;;;;;5010331;28;20522;-82
2023/10/22 04:49:59;;;;;;;5.07;0.73;;;12.00;99.90;;;;;;5006841;28;20050;-82
2023/10/22 04:52:33;;;;;;;5.40;0.80;;;12.00;99.90;;;;;;5014925;28;20108;-82
2023/10/22 04:55:01;;;;;;;3.40;1.23;;;11.90;99.90;;;;;;5015601;28;20042;-82
2023/10/22 04:57:28;;;;;;;7.53;1.02;;;11.90;99.90;;;;;;5011255;28;20048;-81
2023/10/22 04:59:56;;;;;;;5.18;0.82;;;11.90;99.90;;;;;;5015630;28;20053;-81
2023/10/22 05:02:23;;;;;;;2.28;0.68;;;11.90;99.90;;;;;;5014897;28;20042;-81
2023/10/22 05:04:52;;;;;;;5.03;1.00;;;11.90;99.90;;;;;;5020036;28;20070;-81
2023/10/22 05:07:19;;;;;;;3.05;0.70;;;11.80;99.90;;;;;;5014361;28;20513;-81
2023/10/22 05:09:45;;;;;;;2.15;0.73;;;11.80;99.90;;;;;;5012189;28;20081;-81
2023/10/22 05:12:12;;;;;;;2.97;0.70;;;11.80;99.90;;;;;;5009600;28;20057;-82
2023/10/22 05:14:39;;;;;;;1.70;0.70;;;11.80;99.90;;;;;;5020182;28;20096;-82
2023/10/22 05:17:06;;;;;;;1.52;0.60;;;11.80;99.90;;;;;;5018273;28;20043;-82
2023/10/22 05:19:35;;;;;;;3.85;0.73;;;11.70;99.90;;;;;;5012999;28;20049;-81
2023/10/22 05:22:04;;;;;;;2.30;0.75;;;11.70;99.90;;;;;;5010672;28;20050;-83
2023/10/22 05:24:32;;;;;;;4.40;1.00;;;11.70;99.90;;;;;;5018974;28;20046;-81
2023/10/22 05:26:58;;;;;;;4.47;1.00;;;11.70;99.90;;;;;;5013862;28;20077;-82
2023/10/22 05:29:25;;;;;;;3.33;0.75;;;11.70;99.90;;;;;;5006615;28;20691;-81
2023/10/22 05:31:52;;;;;;;1.42;0.65;;;11.70;99.90;;;;;;5010346;28;20560;-81
2023/10/22 05:34:19;;;;;;;1.33;0.70;;;11.70;99.90;;;;;;5016888;28;20440;-81
2023/10/22 05:36:45;;;;;;;2.90;0.70;;;11.70;99.90;;;;;;5011522;28;20109;-80
2023/10/22 05:39:12;;;;;;;1.92;0.88;;;11.70;99.90;;;;;;5011694;28;20054;-81
2023/10/22 05:41:39;;;;;;;7.03;0.95;;;11.70;99.90;;;;;;5006908;28;20038;-83
2023/10/22 05:44:08;;;;;;;3.92;0.73;;;11.70;99.90;;;;;;5014374;28;20074;-83
2023/10/22 05:46:35;;;;;;;2.03;0.80;;;11.60;99.90;;;;;;5011074;28;20485;-80
2023/10/22 05:49:03;;;;;;;2.65;0.65;;;11.70;99.90;;;;;;5011315;28;20054;-80
2023/10/22 05:51:32;;;;;;;3.08;0.80;;;11.70;99.90;;;;;;5008332;28;20048;-81
2023/10/22 05:53:59;;;;;;;1.15;0.43;;;11.70;99.90;;;;;;5010818;28;20468;-81
2023/10/22 05:56:28;;;;;;;4.95;0.93;;;11.70;99.90;;;;;;5015211;28;20049;-80
2023/10/22 05:58:55;;;;;;;2.45;0.60;;;11.60;99.90;;;;;;5012856;28;20046;-81
2023/10/22 06:01:22;;;;;;;2.17;1.00;;;11.60;99.90;;;;;;5018771;28;20081;-80
2023/10/22 06:03:49;;;;;;;4.70;0.82;;;11.60;99.90;;;;;;5017449;28;20041;-82
2023/10/22 06:06:22;;;;;;;1.67;0.70;;;11.70;99.90;;;;;;5013632;28;20058;-82
2023/10/22 06:08:49;;;;;;;2.97;0.80;;;11.60;99.90;;;;;;5012694;28;20049;-81
2023/10/22 06:11:16;;;;;;;3.05;0.60;;;11.60;99.90;;;;;;5018848;28;20054;-82
2023/10/22 06:13:42;;;;;;;5.90;0.73;;;11.60;99.90;;;;;;5014278;28;20053;-81
2023/10/22 06:16:09;;;;;;;2.97;0.75;;;11.60;99.90;;;;;;5017731;28;20046;-82
2023/10/22 06:18:37;;;;;;;1.85;0.88;;;11.60;99.90;;;;;;5013636;28;20038;-83
2023/10/22 06:21:15;;;;;;;1.85;0.90;;;11.60;99.90;;;;;;5015491;28;20171;-81
2023/10/22 06:23:42;;;;;;;3.72;0.90;;;11.60;99.90;;;;;;5009158;28;20042;-82
2023/10/22 06:26:10;;;;;;;5.22;1.10;;;11.60;99.90;;;;;;5010984;28;20046;-82
2023/10/22 06:28:41;;;;;;;3.85;1.23;;;11.60;99.90;;;;;;5009036;28;20038;-82
2023/10/22 06:31:10;;;;;;;1.98;0.70;;;11.60;99.90;;;;;;5014214;28;20057;-82
2023/10/22 06:33:38;;;;;;;2.70;0.80;;;11.60;99.90;;;;;;5015794;28;20509;-80
2023/10/22 06:36:12;;;;;;;4.97;1.25;;;11.60;99.90;;;;;;5010185;28;20046;-79
2023/10/22 06:38:39;;;;;;;3.28;1.42;;;11.60;99.90;;;;;;5015278;28;20097;-81
2023/10/22 06:41:13;;;;;;;2.25;0.82;;;11.60;99.90;;;;;;5017902;28;20041;-82
2023/10/22 06:43:40;;;;;;;3.00;0.75;;;11.60;99.90;;;;;;5014856;28;20042;-81
2023/10/22 06:46:06;;;;;;;4.28;0.98;;;11.50;99.90;;;;;;5012522;28;20077;-82
2023/10/22 06:48:33;;;;;;;5.47;1.08;;;11.50;99.90;;;;;;5018640;28;20042;-81
2023/10/22 06:51:00;;;;;;;5.43;1.23;;;11.50;99.90;;;;;;5010110;28;20081;-83
2023/10/22 06:53:27;;;;;;;1.23;0.68;;;11.50;99.90;;;;;;5013413;28;20046;-82
2023/10/22 06:55:54;;;;;;;5.65;0.77;;;11.50;99.90;;;;;;5021305;28;20077;-82
2023/10/22 06:58:21;;;;;;;1.98;0.63;;;11.50;99.90;;;;;;5011336;28;20050;-81
2023/10/22 07:00:48;;;;;;;2.58;0.50;;;11.50;99.90;;;;;;5010271;28;20042;-80
2023/10/22 07:03:14;;;;;;;1.75;0.55;;;11.60;99.90;;;;;;5019816;28;20045;-80
2023/10/22 07:05:41;;;;;;;1.55;0.70;;;11.60;99.90;;;;;;5021486;28;20140;-81
2023/10/22 07:08:08;;;;;;;1.58;0.60;;;11.60;99.90;;;;;;5014046;28;20410;-82
2023/10/22 07:10:35;;;;;;;1.90;0.75;;;11.60;99.90;;;;;;5008047;28;20042;-83
2023/10/22 07:13:01;;;;;;;1.85;0.50;;;11.60;99.90;;;;;;5031352;28;20109;-81
2023/10/22 07:15:28;;;;;;;2.28;0.75;;;11.70;99.90;;;;;;5015129;28;20125;-81
2023/10/22 07:17:55;;;;;;;2.78;0.93;;;11.70;99.90;;;;;;5013724;28;20052;-82
2023/10/22 07:20:22;;;;;;;3.47;0.60;;;11.70;99.90;;;;;;5013837;28;20050;-81
2023/10/22 07:22:48;;;;;;;2.55;0.95;;;11.70;99.90;;;;;;5011044;28;20038;-82
2023/10/22 07:25:16;;;;;;;1.80;0.70;;;11.80;99.90;;;;;;5019896;28;20116;-83
2023/10/22 07:27:42;;;;;;;3.60;0.75;;;11.80;99.90;;;;;;5017541;28;20088;-81
2023/10/22 07:30:11;;;;;;;2.10;0.80;;;11.80;99.90;;;;;;5035700;23;20101;-80
2023/10/22 07:32:37;;;;;;;0.95;0.50;;;11.80;99.90;;;;;;5028487;28;20049;-84
2023/10/22 07:35:05;;;;;;;3.60;0.70;;;11.80;99.90;;;;;;5041246;28;20482;-80
2023/10/22 07:37:32;;;;;;;4.45;0.70;;;11.80;99.90;;;;;;5023266;28;20515;-80
2023/10/22 07:39:59;;;;;;;4.32;0.70;;;11.80;99.90;;;;;;5026286;28;20497;-78
2023/10/22 07:42:26;;;;;;;2.05;0.60;;;11.80;99.90;;;;;;5035616;28;20041;-81
2023/10/22 07:44:53;;;;;;;2.28;0.60;;;11.80;99.90;;;;;;5029863;28;20053;-80
2023/10/22 07:47:20;;;;;;;6.25;0.80;;;11.90;99.90;;;;;;5031051;28;20145;-78
2023/10/22 07:49:51;;;;;;;1.63;0.70;;;11.90;99.90;;;;;;5041814;28;20049;-80
2023/10/22 07:52:18;;;;;;;2.38;0.60;;;11.90;99.90;;;;;;5029010;28;20049;-78
2023/10/22 07:54:50;;;;;;;3.20;1.05;;;11.90;99.90;;;;;;5033118;28;20045;-78
2023/10/22 07:57:18;;;;;;;2.47;0.95;;;11.90;99.90;;;;;;5037032;28;20045;-79
2023/10/22 07:59:45;;;;;;;2.65;0.90;;;11.90;99.90;;;;;;5038413;28;20069;-79
2023/10/22 08:02:12;;;;;;;2.70;0.93;;;12.00;99.90;;;;;;5024373;28;20408;-79
2023/10/22 08:04:38;;;;;;;3.00;0.63;;;12.00;99.90;;;;;;5022006;28;20127;-79
2023/10/22 08:07:06;;;;;;;5.95;1.08;;;12.10;99.90;;;;;;5017843;28;20050;-79
2023/10/22 08:09:32;;;;;;;4.50;1.25;;;12.10;99.90;;;;;;5031571;28;20054;-77
2023/10/22 08:11:59;;;;;;;1.67;0.63;;;12.20;99.90;;;;;;5029802;28;20073;-78
2023/10/22 08:14:26;;;;;;;2.28;0.60;;;12.20;99.90;;;;;;5030503;28;20116;-79
2023/10/22 08:16:52;;;;;;;4.82;0.98;;;12.30;99.90;;;;;;5024213;28;20522;-78
2023/10/22 08:19:19;;;;;;;2.38;0.73;;;12.30;99.90;;;;;;5034918;28;20532;-79
2023/10/22 08:21:46;;;;;;;4.72;0.80;;;12.40;99.90;;;;;;5029988;28;20038;-79
2023/10/22 08:24:13;;;;;;;3.28;0.70;;;12.40;99.90;;;;;;5034144;28;20104;-79
2023/10/22 08:26:39;;;;;;;2.65;0.70;;;12.50;99.90;;;;;;5037614;28;20041;-80
2023/10/22 08:29:08;;;;;;;4.47;0.80;;;12.50;99.90;;;;;;5031448;28;20414;-78
2023/10/22 08:31:34;;;;;;;3.42;1.05;;;12.60;99.90;;;;;;5028010;28;20162;-77
2023/10/22 08:34:02;;;;;;;5.03;0.90;;;12.60;99.90;;;;;;5029381;28;20101;-78
2023/10/22 08:36:29;;;;;;;1.63;0.45;;;12.70;99.90;;;;;;5019846;28;20486;-77
2023/10/22 08:38:56;;;;;;;2.35;0.70;;;12.70;99.90;;;;;;5035552;28;20041;-78
2023/10/22 08:41:29;;;;;;;5.07;1.02;;;12.70;99.90;;;;;;5035519;28;20049;-77
2023/10/22 08:43:58;;;;;;;1.55;0.57;;;12.80;99.90;;;;;;5034628;28;20042;-76
2023/10/22 08:46:25;;;;;;;3.90;0.70;;;12.80;99.90;;;;;;5033107;28;20053;-76
2023/10/22 08:48:51;;;;;;;3.53;0.95;;;12.90;99.90;;;;;;5038254;28;20054;-77
2023/10/22 08:51:20;;;;;;;3.10;0.77;;;12.90;99.90;;;;;;5021933;28;20100;-78
2023/10/22 08:53:47;;;;;;;2.47;0.60;;;13.00;99.90;;;;;;5041596;28;20045;-77
2023/10/22 08:56:15;;;;;;;3.33;1.05;;;13.00;99.90;;;;;;5030095;28;20057;-77
2023/10/22 08:58:41;;;;;;;3.08;0.90;;;13.10;99.90;;;;;;5031595;28;20127;-77
2023/10/22 09:01:08;;;;;;;3.80;0.80;;;13.10;99.90;;;;;;5022362;28;20089;-77
2023/10/22 09:03:35;;;;;;;6.30;1.27;;;13.10;99.90;;;;;;5029759;28;20050;-77
2023/10/22 09:06:03;;;;;;;8.88;0.95;;;13.10;99.90;;;;;;5019387;28;20074;-77
2023/10/22 09:08:42;;;;;;;2.13;0.75;;;13.20;99.90;;;;;;5033518;28;20068;-77
2023/10/22 09:11:16;;;;;;;3.65;1.00;;;13.20;99.90;;;;;;5029270;28;20056;-77
2023/10/22 09:13:44;;;;;;;2.70;1.02;;;13.30;99.90;;;;;;5029264;28;20052;-77
2023/10/22 09:16:11;;;;;;;3.72;0.70;;;13.30;99.90;;;;;;5022557;28;20509;-78
2023/10/22 09:18:45;;;;;;;2.83;0.98;;;13.30;99.90;;;;;;5028325;28;20108;-77
2023/10/22 09:21:12;;;;;;;2.58;0.80;;;13.40;99.90;;;;;;5024973;28;20045;-78
2023/10/22 09:23:38;;;;;;;3.55;0.93;;;13.40;99.90;;;;;;5034938;28;20057;-78
2023/10/22 09:26:10;;;;;;;2.85;0.80;;;13.40;99.90;;;;;;5028300;28;20060;-77
2023/10/22 09:28:37;;;;;;;2.40;0.93;;;13.50;99.90;;;;;;5031574;28;20054;-78
2023/10/22 09:31:04;;;;;;;3.60;1.00;;;13.50;99.90;;;;;;5021498;28;20119;-77
2023/10/22 09:33:38;;;;;;;4.75;0.95;;;13.60;99.90;;;;;;5027762;28;20581;-78
2023/10/22 09:36:06;;;;;;;2.78;0.55;;;13.60;99.90;;;;;;5032023;28;20059;-78
2023/10/22 09:38:46;;;;;;;4.53;1.20;;;13.60;99.90;;;;;;5033645;28;20046;-79
2023/10/22 09:41:25;;;;;;;4.38;1.13;;;13.60;99.90;;;;;;5026173;28;20042;-78
2023/10/22 09:44:00;;;;;;;8.35;0.65;;;13.70;99.90;;;;;;5032454;28;20507;-76
2023/10/22 09:46:32;;;;;;;3.20;0.80;;;13.70;99.90;;;;;;5022674;28;20073;-78
2023/10/22 09:49:03;;;;;;;2.45;0.77;;;13.80;99.90;;;;;;5029016;28;20413;-77
2023/10/22 09:51:34;;;;;;;7.18;1.00;;;13.80;99.90;;;;;;5034844;28;20421;-77
2023/10/22 09:54:05;;;;;;;3.40;0.80;;;13.80;99.90;;;;;;5036123;28;20054;-78
2023/10/22 09:56:41;;;;;;;2.45;0.80;;;13.90;99.90;;;;;;5030743;28;20064;-79
2023/10/22 09:59:10;;;;;;;5.38;0.80;;;13.90;99.90;;;;;;5020685;28;20052;-77
2023/10/22 10:01:38;;;;;;;5.75;0.70;;;14.00;99.90;;;;;;5025940;28;20461;-78
2023/10/22 10:04:05;;;;;;;5.15;0.90;;;14.00;99.90;;;;;;5028796;28;20129;-78
2023/10/22 10:06:35;;;;;;;3.00;0.80;;;14.00;99.90;;;;;;5034665;28;20077;-78
2023/10/22 10:09:03;;;;;;;2.88;0.75;;;14.00;99.90;;;;;;5028067;28;20072;-78
2023/10/22 10:11:31;;;;;;;3.72;0.60;;;14.10;99.90;;;;;;5030754;28;20057;-78
2023/10/22 10:13:58;;;;;;;6.13;0.95;;;14.10;99.90;;;;;;5036835;28;20041;-78
2023/10/22 10:16:25;;;;;;;1.48;0.65;;;14.10;99.90;;;;;;5039037;28;20050;-78
2023/10/22 10:18:58;;;;;;;4.60;1.00;;;14.20;99.90;;;;;;5033067;28;20050;-78
2023/10/22 10:21:34;;;;;;;6.00;1.00;;;14.20;99.90;;;;;;5035312;28;20047;-78
2023/10/22 10:24:19;;;;;;;4.38;0.80;;;14.20;99.90;;;;;;5027004;28;20046;-78
2023/10/22 10:26:50;;;;;;;2.63;0.60;;;14.20;99.90;;;;;;5030212;28;20068;-78
2023/10/22 10:29:19;;;;;;;2.28;0.98;;;14.30;99.90;;;;;;5021894;28;20049;-77
2023/10/22 10:31:53;;;;;;;3.15;0.93;;;14.30;99.90;;;;;;5028963;28;20049;-78
2023/10/22 10:34:40;;;;;;;2.90;1.10;;;14.30;99.90;;;;;;5035406;28;20053;-78
2023/10/22 10:37:13;;;;;;;5.18;0.90;;;14.30;99.90;;;;;;5030815;28;20544;-78
2023/10/22 10:39:42;;;;;;;4.63;0.90;;;14.40;99.90;;;;;;5026738;28;20107;-78
2023/10/22 10:42:28;;;;;;;3.30;0.95;;;14.40;99.90;;;;;;5028989;28;20096;-78
2023/10/22 10:44:55;;;;;;;4.25;1.10;;;14.50;99.90;;;;;;5017522;28;20042;-78
2023/10/22 10:47:22;;;;;;;4.63;1.10;;;14.60;99.90;;;;;;5034899;28;20080;-77
2023/10/22 10:50:05;;;;;;;5.05;0.82;;;14.70;99.90;;;;;;5032528;28;20049;-77
2023/10/22 10:52:38;;;;;;;4.60;1.10;;;14.80;99.90;;;;;;5030156;28;20137;-78
2023/10/22 10:55:08;;;;;;;2.67;0.60;;;14.90;99.90;;;;;;5028040;28;20046;-78
2023/10/22 10:57:37;;;;;;;2.20;0.70;;;15.00;99.90;;;;;;5028679;28;20053;-78
2023/10/22 11:00:13;;;;;;;4.47;0.60;;;15.10;99.90;;;;;;5019479;28;20156;-77
2023/10/22 11:02:41;;;;;;;5.45;1.02;;;15.10;99.90;;;;;;5032178;28;20052;-78
2023/10/22 11:05:08;;;;;;;3.33;0.60;;;15.20;99.90;;;;;;5037153;28;20048;-79
2023/10/22 11:07:36;;;;;;;3.65;0.73;;;15.20;99.90;;;;;;5032315;28;20104;-77
2023/10/22 11:10:16;;;;;;;4.65;0.80;;;15.20;99.90;;;;;;5023964;28;20049;-79
2023/10/22 11:12:44;;;;;;;6.05;0.95;;;15.20;99.90;;;;;;5036478;28;20437;-78
2023/10/22 11:15:12;;;;;;;5.82;1.00;;;15.20;99.90;;;;;;5034338;28;20079;-76
2023/10/22 11:17:41;;;;;;;2.28;0.77;;;15.20;99.90;;;;;;5037180;28;20082;-78
2023/10/22 11:20:09;;;;;;;3.15;0.70;;;15.30;99.90;;;;;;5027716;28;20099;-78
2023/10/22 11:22:36;;;;;;;5.45;0.98;;;15.30;99.90;;;;;;5025339;28;20050;-78
2023/10/22 11:25:08;;;;;;;3.25;1.08;;;15.30;99.90;;;;;;5030804;28;20045;-77
2023/10/22 11:27:39;;;;;;;7.95;0.80;;;15.40;99.90;;;;;;5039104;28;20705;-78
2023/10/22 11:30:06;;;;;;;;;;;15.40;99.90;;;;;;5044890;28;20420;-79
2023/10/22 11:32:37;;;;;;;9.35;0.82;;;15.50;99.90;;;;;;5027513;28;20016;-78
2023/10/22 11:35:07;;;;;;;1.98;0.90;;;15.60;99.90;;;;;;5027823;28;20067;-78
2023/10/22 11:37:41;;;;;;;2.42;0.70;;;15.70;99.90;;;;;;5023947;28;20129;-77
2023/10/22 11:40:29;;;;;;;7.28;1.08;;;15.70;99.90;;;;;;5019762;28;20049;-79
2023/10/22 11:43:13;;;;;;;5.57;0.80;;;15.80;99.90;;;;;;5025044;28;20045;-78
2023/10/22 11:45:51;;;;;;;4.28;0.70;;;15.80;99.90;;;;;;5031139;28;20133;-80
2023/10/22 11:48:19;;;;;;;3.28;1.08;;;15.80;99.90;;;;;;5023279;28;20132;-78
2023/10/22 11:50:49;;;;;;;6.80;1.50;;;15.80;99.90;;;;;;5028723;28;20049;-79
2023/10/22 11:53:19;;;;;;;5.80;1.50;;;15.80;99.90;;;;;;5023867;28;20575;-76
2023/10/22 11:55:46;;;;;;;4.38;1.65;;;15.80;99.90;;;;;;5032907;28;20077;-78
2023/10/22 11:58:20;;;;;;;7.18;2.20;;;15.80;99.90;;;;;;5026209;28;20037;-77
2023/10/22 12:00:48;;;;;;;7.38;2.03;;;15.80;99.90;;;;;;5035680;28;20058;-78
2023/10/22 12:03:15;;;;;;;2.15;0.70;;;15.70;99.90;;;;;;5031535;28;20125;-78
2023/10/22 12:05:43;;;;;;;2.88;0.70;;;15.70;99.90;;;;;;5035265;28;20049;-78
2023/10/22 12:08:10;;;;;;;3.13;1.08;;;15.70;99.90;;;;;;5022812;28;20042;-78
2023/10/22 12:10:37;;;;;;;4.05;0.82;;;15.70;99.90;;;;;;5024980;28;20049;-80
2023/10/22 12:13:07;;;;;;;3.40;0.65;;;15.70;99.90;;;;;;5032295;28;20049;-79
2023/10/22 12:15:34;;;;;;;2.08;0.63;;;15.70;99.90;;;;;;5031243;28;20054;-79
2023/10/22 12:18:02;;;;;;;6.47;1.10;;;15.70;99.90;;;;;;5029325;28;20042;-78
2023/10/22 12:20:30;;;;;;;4.90;0.85;;;15.70;99.90;;;;;;5030504;28;20137;-78
2023/10/22 12:22:57;;;;;;;2.63;0.70;;;15.70;99.90;;;;;;5024731;28;20114;-79
2023/10/22 12:25:24;;;;;;;2.80;0.75;;;15.80;99.90;;;;;;5032884;28;20057;-79
2023/10/22 12:27:50;;;;;;;2.95;0.77;;;15.80;99.90;;;;;;5036190;28;20417;-79
2023/10/22 12:30:17;;;;;;;2.17;0.90;;;15.80;99.90;;;;;;5032222;28;20057;-78
2023/10/22 12:32:44;;;;;;;4.28;0.60;;;15.90;99.90;;;;;;5028839;28;20046;-77
2023/10/22 12:35:12;;;;;;;3.58;0.73;;;15.90;99.90;;;;;;5035533;28;20037;-78
2023/10/22 12:37:39;;;;;;;4.80;0.90;;;15.90;99.90;;;;;;5024960;28;20460;-78
2023/10/22 12:40:07;;;;;;;2.33;0.60;;;15.90;99.90;;;;;;5026288;28;20046;-79
2023/10/22 12:42:36;;;;;;;4.50;0.70;;;16.00;99.90;;;;;;5032259;28;20371;-78
2023/10/22 12:45:03;;;;;;;3.20;0.70;;;16.00;99.90;;;;;;5028208;28;20037;-79
2023/10/22 12:47:30;;;;;;;3.10;0.70;;;16.00;99.90;;;;;;5025226;28;20528;-80
2023/10/22 12:49:57;;;;;;;2.25;0.80;;;16.00;99.90;;;;;;5029463;28;20511;-78
2023/10/22 12:52:24;;;;;;;2.88;1.27;;;16.10;99.90;;;;;;5021632;28;20051;-79